sensor_id;sensor_type;location;lat;lon;timestamp;P1;durP1;ratioP1;P2;durP2;ratioP2
70253;SDS011;57649;42.968;1.608;2023-01-31T00:00:39;34.08;;;24.63;;
70253;SDS011;57649;42.968;1.608;2023-01-31T00:03:05;33.63;;;25.08;;
70253;SDS011;57649;42.968;1.608;2023-01-31T00:05:30;33.20;;;23.58;;
70253;SDS011;57649;42.968;1.608;2023-01-31T00:07:55;31.95;;;23.40;;
70253;SDS011;57649;42.968;1.608;2023-01-31T00:10:21;31.13;;;22.17;;
70253;SDS011;57649;42.968;1.608;2023-01-31T00:12:46;33.30;;;22.65;;
70253;SDS011;57649;42.968;1.608;2023-01-31T00:15:12;30.27;;;22.05;;
70253;SDS011;57649;42.968;1.608;2023-01-31T00:17:40;33.53;;;22.50;;
70253;SDS011;57649;42.968;1.608;2023-01-31T00:20:06;31.83;;;22.05;;
70253;SDS011;57649;42.968;1.608;2023-01-31T00:22:32;30.20;;;21.45;;
70253;SDS011;57649;42.968;1.608;2023-01-31T00:24:57;31.73;;;22.08;;
70253;SDS011;57649;42.968;1.608;2023-01-31T00:27:23;31.08;;;22.05;;
70253;SDS011;57649;42.968;1.608;2023-01-31T00:29:48;27.15;;;20.27;;
70253;SDS011;57649;42.968;1.608;2023-01-31T00:32:14;31.52;;;22.08;;
70253;SDS011;57649;42.968;1.608;2023-01-31T00:34:39;31.65;;;21.63;;
70253;SDS011;57649;42.968;1.608;2023-01-31T00:37:04;33.75;;;21.85;;
70253;SDS011;57649;42.968;1.608;2023-01-31T00:39:30;29.23;;;21.48;;
70253;SDS011;57649;42.968;1.608;2023-01-31T00:41:55;30.20;;;21.08;;
70253;SDS011;57649;42.968;1.608;2023-01-31T00:44:21;30.60;;;20.83;;
70253;SDS011;57649;42.968;1.608;2023-01-31T00:46:46;27.00;;;20.35;;
70253;SDS011;57649;42.968;1.608;2023-01-31T00:49:11;26.60;;;18.67;;
70253;SDS011;57649;42.968;1.608;2023-01-31T00:51:37;24.85;;;18.80;;
70253;SDS011;57649;42.968;1.608;2023-01-31T00:54:02;27.45;;;18.70;;
70253;SDS011;57649;42.968;1.608;2023-01-31T00:56:28;27.70;;;18.58;;
70253;SDS011;57649;42.968;1.608;2023-01-31T00:58:53;26.15;;;18.58;;
70253;SDS011;57649;42.968;1.608;2023-01-31T01:01:27;25.42;;;18.08;;
70253;SDS011;57649;42.968;1.608;2023-01-31T01:03:54;24.10;;;18.38;;
70253;SDS011;57649;42.968;1.608;2023-01-31T01:06:20;26.35;;;17.90;;
70253;SDS011;57649;42.968;1.608;2023-01-31T01:08:47;23.13;;;16.95;;
70253;SDS011;57649;42.968;1.608;2023-01-31T01:11:16;23.73;;;16.08;;
70253;SDS011;57649;42.968;1.608;2023-01-31T01:13:44;24.95;;;16.77;;
70253;SDS011;57649;42.968;1.608;2023-01-31T01:16:11;23.52;;;16.30;;
70253;SDS011;57649;42.968;1.608;2023-01-31T01:18:44;23.25;;;16.23;;
70253;SDS011;57649;42.968;1.608;2023-01-31T01:21:16;20.40;;;16.13;;
70253;SDS011;57649;42.968;1.608;2023-01-31T01:23:46;24.95;;;16.02;;
70253;SDS011;57649;42.968;1.608;2023-01-31T01:26:16;22.08;;;16.25;;
70253;SDS011;57649;42.968;1.608;2023-01-31T01:28:44;22.88;;;14.82;;
70253;SDS011;57649;42.968;1.608;2023-01-31T01:31:10;26.13;;;17.75;;
70253;SDS011;57649;42.968;1.608;2023-01-31T01:33:37;22.48;;;15.73;;
70253;SDS011;57649;42.968;1.608;2023-01-31T01:36:03;24.20;;;17.20;;
70253;SDS011;57649;42.968;1.608;2023-01-31T01:38:34;24.23;;;17.55;;
70253;SDS011;57649;42.968;1.608;2023-01-31T01:41:00;25.08;;;16.08;;
70253;SDS011;57649;42.968;1.608;2023-01-31T01:43:38;24.58;;;16.67;;
70253;SDS011;57649;42.968;1.608;2023-01-31T01:46:54;21.83;;;15.05;;
70253;SDS011;57649;42.968;1.608;2023-01-31T01:49:26;25.35;;;15.50;;
70253;SDS011;57649;42.968;1.608;2023-01-31T01:51:56;23.48;;;15.75;;
70253;SDS011;57649;42.968;1.608;2023-01-31T01:54:27;22.42;;;15.40;;
70253;SDS011;57649;42.968;1.608;2023-01-31T01:57:01;24.58;;;15.57;;
70253;SDS011;57649;42.968;1.608;2023-01-31T01:59:34;23.20;;;15.32;;
70253;SDS011;57649;42.968;1.608;2023-01-31T02:02:07;22.77;;;14.50;;
70253;SDS011;57649;42.968;1.608;2023-01-31T02:04:35;20.23;;;14.20;;
70253;SDS011;57649;42.968;1.608;2023-01-31T02:07:04;22.65;;;15.35;;
70253;SDS011;57649;42.968;1.608;2023-01-31T02:12:15;21.73;;;14.38;;
70253;SDS011;57649;42.968;1.608;2023-01-31T02:14:40;18.00;;;12.80;;
70253;SDS011;57649;42.968;1.608;2023-01-31T02:17:13;18.30;;;12.60;;
70253;SDS011;57649;42.968;1.608;2023-01-31T02:35:57;21.52;;;14.10;;
70253;SDS011;57649;42.968;1.608;2023-01-31T02:38:55;21.45;;;13.07;;
70253;SDS011;57649;42.968;1.608;2023-01-31T02:41:43;21.73;;;14.02;;
70253;SDS011;57649;42.968;1.608;2023-01-31T02:44:20;19.48;;;13.15;;
70253;SDS011;57649;42.968;1.608;2023-01-31T02:47:19;17.50;;;11.82;;
70253;SDS011;57649;42.968;1.608;2023-01-31T02:50:10;18.80;;;12.30;;
70253;SDS011;57649;42.968;1.608;2023-01-31T02:52:44;18.05;;;11.13;;
70253;SDS011;57649;42.968;1.608;2023-01-31T02:58:05;19.15;;;12.48;;
70253;SDS011;57649;42.968;1.608;2023-01-31T03:00:33;20.70;;;12.38;;
70253;SDS011;57649;42.968;1.608;2023-01-31T03:03:06;19.80;;;12.57;;
70253;SDS011;57649;42.968;1.608;2023-01-31T03:05:37;21.52;;;14.00;;
70253;SDS011;57649;42.968;1.608;2023-01-31T03:08:02;21.33;;;13.65;;
70253;SDS011;57649;42.968;1.608;2023-01-31T03:19:22;20.45;;;12.73;;
70253;SDS011;57649;42.968;1.608;2023-01-31T03:21:58;19.20;;;12.65;;
70253;SDS011;57649;42.968;1.608;2023-01-31T03:24:29;15.98;;;10.85;;
70253;SDS011;57649;42.968;1.608;2023-01-31T03:26:56;16.92;;;10.90;;
70253;SDS011;57649;42.968;1.608;2023-01-31T03:29:26;18.10;;;11.38;;
70253;SDS011;57649;42.968;1.608;2023-01-31T03:34:27;18.17;;;12.20;;
70253;SDS011;57649;42.968;1.608;2023-01-31T03:39:38;14.05;;;10.68;;
70253;SDS011;57649;42.968;1.608;2023-01-31T03:42:06;16.23;;;10.88;;
70253;SDS011;57649;42.968;1.608;2023-01-31T03:44:38;15.73;;;10.27;;
70253;SDS011;57649;42.968;1.608;2023-01-31T03:47:26;17.90;;;11.68;;
70253;SDS011;57649;42.968;1.608;2023-01-31T03:49:57;14.27;;;9.70;;
70253;SDS011;57649;42.968;1.608;2023-01-31T03:52:30;17.08;;;10.77;;
70253;SDS011;57649;42.968;1.608;2023-01-31T03:55:01;15.40;;;10.60;;
70253;SDS011;57649;42.968;1.608;2023-01-31T03:57:35;17.17;;;10.40;;
70253;SDS011;57649;42.968;1.608;2023-01-31T04:02:32;15.30;;;10.13;;
70253;SDS011;57649;42.968;1.608;2023-01-31T04:07:33;19.08;;;10.98;;
70253;SDS011;57649;42.968;1.608;2023-01-31T04:09:59;15.07;;;10.48;;
70253;SDS011;57649;42.968;1.608;2023-01-31T04:12:25;16.70;;;10.48;;
70253;SDS011;57649;42.968;1.608;2023-01-31T04:14:50;15.55;;;10.23;;
70253;SDS011;57649;42.968;1.608;2023-01-31T04:17:16;15.38;;;9.80;;
70253;SDS011;57649;42.968;1.608;2023-01-31T04:19:41;14.38;;;9.13;;
70253;SDS011;57649;42.968;1.608;2023-01-31T04:22:06;13.82;;;9.38;;
70253;SDS011;57649;42.968;1.608;2023-01-31T04:24:32;26.25;;;18.00;;
70253;SDS011;57649;42.968;1.608;2023-01-31T04:26:57;39.45;;;24.70;;
70253;SDS011;57649;42.968;1.608;2023-01-31T04:29:23;46.53;;;27.02;;
70253;SDS011;57649;42.968;1.608;2023-01-31T04:31:48;32.03;;;21.48;;
70253;SDS011;57649;42.968;1.608;2023-01-31T04:34:14;17.08;;;11.23;;
70253;SDS011;57649;42.968;1.608;2023-01-31T04:36:39;14.48;;;9.18;;
70253;SDS011;57649;42.968;1.608;2023-01-31T04:39:04;14.18;;;9.50;;
70253;SDS011;57649;42.968;1.608;2023-01-31T04:41:30;14.15;;;8.77;;
70253;SDS011;57649;42.968;1.608;2023-01-31T04:43:55;15.80;;;9.57;;
70253;SDS011;57649;42.968;1.608;2023-01-31T04:46:21;12.88;;;8.93;;
70253;SDS011;57649;42.968;1.608;2023-01-31T04:48:47;13.93;;;9.48;;
70253;SDS011;57649;42.968;1.608;2023-01-31T04:51:12;18.75;;;13.18;;
70253;SDS011;57649;42.968;1.608;2023-01-31T04:53:37;20.73;;;14.23;;
70253;SDS011;57649;42.968;1.608;2023-01-31T04:56:03;19.35;;;11.27;;
70253;SDS011;57649;42.968;1.608;2023-01-31T04:58:29;15.05;;;9.38;;
70253;SDS011;57649;42.968;1.608;2023-01-31T05:00:55;14.93;;;10.00;;
70253;SDS011;57649;42.968;1.608;2023-01-31T05:03:21;12.45;;;8.77;;
70253;SDS011;57649;42.968;1.608;2023-01-31T05:05:47;13.07;;;8.93;;
70253;SDS011;57649;42.968;1.608;2023-01-31T05:08:13;16.10;;;9.38;;
70253;SDS011;57649;42.968;1.608;2023-01-31T05:10:39;13.52;;;9.10;;
70253;SDS011;57649;42.968;1.608;2023-01-31T05:13:05;15.55;;;9.52;;
70253;SDS011;57649;42.968;1.608;2023-01-31T05:15:31;14.35;;;8.40;;
70253;SDS011;57649;42.968;1.608;2023-01-31T05:17:56;16.42;;;9.90;;
70253;SDS011;57649;42.968;1.608;2023-01-31T05:20:30;15.48;;;9.57;;
70253;SDS011;57649;42.968;1.608;2023-01-31T05:23:00;12.52;;;9.40;;
70253;SDS011;57649;42.968;1.608;2023-01-31T05:25:27;13.52;;;9.10;;
70253;SDS011;57649;42.968;1.608;2023-01-31T05:27:52;15.25;;;9.55;;
70253;SDS011;57649;42.968;1.608;2023-01-31T05:30:18;19.55;;;10.10;;
70253;SDS011;57649;42.968;1.608;2023-01-31T05:32:44;14.25;;;9.75;;
70253;SDS011;57649;42.968;1.608;2023-01-31T05:35:11;17.25;;;11.00;;
70253;SDS011;57649;42.968;1.608;2023-01-31T05:37:37;15.90;;;11.30;;
70253;SDS011;57649;42.968;1.608;2023-01-31T05:40:06;13.80;;;9.47;;
70253;SDS011;57649;42.968;1.608;2023-01-31T05:42:35;13.20;;;7.38;;
70253;SDS011;57649;42.968;1.608;2023-01-31T05:45:01;12.77;;;7.97;;
70253;SDS011;57649;42.968;1.608;2023-01-31T05:47:27;10.95;;;7.88;;
70253;SDS011;57649;42.968;1.608;2023-01-31T05:49:53;12.95;;;7.70;;
70253;SDS011;57649;42.968;1.608;2023-01-31T05:52:18;11.50;;;8.35;;
70253;SDS011;57649;42.968;1.608;2023-01-31T05:54:44;14.93;;;8.68;;
70253;SDS011;57649;42.968;1.608;2023-01-31T05:57:09;16.08;;;8.73;;
70253;SDS011;57649;42.968;1.608;2023-01-31T05:59:35;13.20;;;8.23;;
70253;SDS011;57649;42.968;1.608;2023-01-31T06:02:00;13.73;;;8.57;;
70253;SDS011;57649;42.968;1.608;2023-01-31T06:04:26;11.60;;;8.40;;
70253;SDS011;57649;42.968;1.608;2023-01-31T06:06:51;14.93;;;9.07;;
70253;SDS011;57649;42.968;1.608;2023-01-31T06:09:17;15.77;;;8.80;;
70253;SDS011;57649;42.968;1.608;2023-01-31T06:11:42;14.77;;;9.88;;
70253;SDS011;57649;42.968;1.608;2023-01-31T06:14:08;12.07;;;8.38;;
70253;SDS011;57649;42.968;1.608;2023-01-31T06:16:34;16.10;;;7.82;;
70253;SDS011;57649;42.968;1.608;2023-01-31T06:18:59;11.10;;;7.82;;
70253;SDS011;57649;42.968;1.608;2023-01-31T06:21:25;13.02;;;8.75;;
70253;SDS011;57649;42.968;1.608;2023-01-31T06:23:52;12.95;;;8.10;;
70253;SDS011;57649;42.968;1.608;2023-01-31T06:26:17;15.05;;;9.02;;
70253;SDS011;57649;42.968;1.608;2023-01-31T06:28:43;12.15;;;7.88;;
70253;SDS011;57649;42.968;1.608;2023-01-31T06:31:09;11.32;;;7.45;;
70253;SDS011;57649;42.968;1.608;2023-01-31T06:33:35;11.18;;;7.75;;
70253;SDS011;57649;42.968;1.608;2023-01-31T06:36:01;16.05;;;8.93;;
70253;SDS011;57649;42.968;1.608;2023-01-31T06:38:27;14.32;;;8.25;;
70253;SDS011;57649;42.968;1.608;2023-01-31T06:40:53;15.25;;;10.75;;
70253;SDS011;57649;42.968;1.608;2023-01-31T06:43:18;15.98;;;9.75;;
70253;SDS011;57649;42.968;1.608;2023-01-31T06:45:44;17.42;;;9.40;;
70253;SDS011;57649;42.968;1.608;2023-01-31T06:48:10;10.73;;;8.02;;
70253;SDS011;57649;42.968;1.608;2023-01-31T06:50:36;14.13;;;9.05;;
70253;SDS011;57649;42.968;1.608;2023-01-31T06:53:01;15.45;;;8.80;;
70253;SDS011;57649;42.968;1.608;2023-01-31T06:55:27;13.25;;;8.63;;
70253;SDS011;57649;42.968;1.608;2023-01-31T06:57:52;20.48;;;12.35;;
70253;SDS011;57649;42.968;1.608;2023-01-31T07:00:19;14.57;;;9.68;;
70253;SDS011;57649;42.968;1.608;2023-01-31T07:02:45;10.18;;;7.55;;
70253;SDS011;57649;42.968;1.608;2023-01-31T07:05:11;13.95;;;9.10;;
70253;SDS011;57649;42.968;1.608;2023-01-31T07:07:36;13.05;;;8.20;;
70253;SDS011;57649;42.968;1.608;2023-01-31T07:10:02;13.23;;;8.05;;
70253;SDS011;57649;42.968;1.608;2023-01-31T07:12:28;11.00;;;6.97;;
70253;SDS011;57649;42.968;1.608;2023-01-31T07:14:53;12.05;;;7.50;;
70253;SDS011;57649;42.968;1.608;2023-01-31T07:17:19;11.40;;;7.03;;
70253;SDS011;57649;42.968;1.608;2023-01-31T07:19:47;14.38;;;6.43;;
70253;SDS011;57649;42.968;1.608;2023-01-31T07:22:13;12.20;;;6.97;;
70253;SDS011;57649;42.968;1.608;2023-01-31T07:24:38;16.58;;;11.35;;
70253;SDS011;57649;42.968;1.608;2023-01-31T07:27:04;12.52;;;7.28;;
70253;SDS011;57649;42.968;1.608;2023-01-31T07:29:29;10.88;;;8.15;;
70253;SDS011;57649;42.968;1.608;2023-01-31T07:31:54;11.20;;;7.38;;
70253;SDS011;57649;42.968;1.608;2023-01-31T07:34:20;10.45;;;8.05;;
70253;SDS011;57649;42.968;1.608;2023-01-31T07:36:50;12.27;;;7.88;;
70253;SDS011;57649;42.968;1.608;2023-01-31T07:39:16;14.57;;;7.30;;
70253;SDS011;57649;42.968;1.608;2023-01-31T07:41:41;13.35;;;6.45;;
70253;SDS011;57649;42.968;1.608;2023-01-31T07:44:07;9.85;;;7.45;;
70253;SDS011;57649;42.968;1.608;2023-01-31T07:46:36;12.25;;;7.93;;
70253;SDS011;57649;42.968;1.608;2023-01-31T07:49:03;13.10;;;8.63;;
70253;SDS011;57649;42.968;1.608;2023-01-31T07:51:29;10.75;;;7.53;;
70253;SDS011;57649;42.968;1.608;2023-01-31T07:53:54;17.20;;;7.38;;
70253;SDS011;57649;42.968;1.608;2023-01-31T07:56:20;13.68;;;7.47;;
70253;SDS011;57649;42.968;1.608;2023-01-31T07:58:46;16.52;;;12.32;;
70253;SDS011;57649;42.968;1.608;2023-01-31T08:01:15;13.80;;;8.32;;
70253;SDS011;57649;42.968;1.608;2023-01-31T08:03:59;12.80;;;7.22;;
70253;SDS011;57649;42.968;1.608;2023-01-31T08:06:25;10.70;;;6.97;;
70253;SDS011;57649;42.968;1.608;2023-01-31T08:08:53;14.55;;;8.18;;
70253;SDS011;57649;42.968;1.608;2023-01-31T08:11:18;14.15;;;7.93;;
70253;SDS011;57649;42.968;1.608;2023-01-31T08:13:44;12.55;;;7.25;;
70253;SDS011;57649;42.968;1.608;2023-01-31T08:16:09;10.93;;;7.32;;
70253;SDS011;57649;42.968;1.608;2023-01-31T08:18:35;16.20;;;10.43;;
70253;SDS011;57649;42.968;1.608;2023-01-31T08:21:01;15.63;;;10.57;;
70253;SDS011;57649;42.968;1.608;2023-01-31T08:23:27;16.33;;;10.82;;
70253;SDS011;57649;42.968;1.608;2023-01-31T08:25:58;13.85;;;9.05;;
70253;SDS011;57649;42.968;1.608;2023-01-31T08:28:24;14.85;;;9.13;;
70253;SDS011;57649;42.968;1.608;2023-01-31T08:30:49;13.93;;;9.40;;
70253;SDS011;57649;42.968;1.608;2023-01-31T08:33:15;15.80;;;9.35;;
70253;SDS011;57649;42.968;1.608;2023-01-31T08:35:40;14.30;;;9.55;;
70253;SDS011;57649;42.968;1.608;2023-01-31T08:38:05;10.77;;;8.15;;
70253;SDS011;57649;42.968;1.608;2023-01-31T08:40:31;14.40;;;8.93;;
70253;SDS011;57649;42.968;1.608;2023-01-31T08:42:57;14.15;;;8.50;;
70253;SDS011;57649;42.968;1.608;2023-01-31T08:47:57;14.32;;;7.28;;
70253;SDS011;57649;42.968;1.608;2023-01-31T08:50:24;17.70;;;8.52;;
70253;SDS011;57649;42.968;1.608;2023-01-31T08:52:55;13.45;;;9.20;;
70253;SDS011;57649;42.968;1.608;2023-01-31T08:55:22;15.48;;;9.38;;
70253;SDS011;57649;42.968;1.608;2023-01-31T08:57:48;14.10;;;8.35;;
70253;SDS011;57649;42.968;1.608;2023-01-31T09:00:15;13.30;;;8.52;;
70253;SDS011;57649;42.968;1.608;2023-01-31T09:02:42;15.68;;;10.35;;
70253;SDS011;57649;42.968;1.608;2023-01-31T09:05:07;20.73;;;11.10;;
70253;SDS011;57649;42.968;1.608;2023-01-31T09:07:33;13.82;;;10.55;;
70253;SDS011;57649;42.968;1.608;2023-01-31T09:09:59;17.08;;;11.52;;
70253;SDS011;57649;42.968;1.608;2023-01-31T09:12:24;15.95;;;9.77;;
70253;SDS011;57649;42.968;1.608;2023-01-31T09:14:50;16.00;;;10.90;;
70253;SDS011;57649;42.968;1.608;2023-01-31T09:17:16;17.52;;;12.20;;
70253;SDS011;57649;42.968;1.608;2023-01-31T09:19:42;18.48;;;11.43;;
70253;SDS011;57649;42.968;1.608;2023-01-31T09:22:08;15.43;;;9.73;;
70253;SDS011;57649;42.968;1.608;2023-01-31T09:24:33;16.27;;;10.80;;
70253;SDS011;57649;42.968;1.608;2023-01-31T09:26:58;11.30;;;8.43;;
70253;SDS011;57649;42.968;1.608;2023-01-31T09:29:24;16.30;;;9.98;;
70253;SDS011;57649;42.968;1.608;2023-01-31T09:31:50;13.18;;;8.65;;
70253;SDS011;57649;42.968;1.608;2023-01-31T09:34:16;13.45;;;8.73;;
70253;SDS011;57649;42.968;1.608;2023-01-31T09:36:42;16.55;;;9.68;;
70253;SDS011;57649;42.968;1.608;2023-01-31T09:39:08;16.38;;;7.78;;
70253;SDS011;57649;42.968;1.608;2023-01-31T09:41:36;13.80;;;8.52;;
70253;SDS011;57649;42.968;1.608;2023-01-31T09:46:44;12.65;;;6.93;;
70253;SDS011;57649;42.968;1.608;2023-01-31T09:49:19;9.57;;;7.40;;
70253;SDS011;57649;42.968;1.608;2023-01-31T09:51:53;13.23;;;6.47;;
70253;SDS011;57649;42.968;1.608;2023-01-31T09:54:25;11.48;;;6.40;;
70253;SDS011;57649;42.968;1.608;2023-01-31T09:59:38;9.57;;;7.18;;
70253;SDS011;57649;42.968;1.608;2023-01-31T10:07:40;12.73;;;5.25;;
70253;SDS011;57649;42.968;1.608;2023-01-31T10:13:16;8.80;;;5.57;;
70253;SDS011;57649;42.968;1.608;2023-01-31T10:15:50;7.32;;;4.07;;
70253;SDS011;57649;42.968;1.608;2023-01-31T10:18:35;6.57;;;4.07;;
70253;SDS011;57649;42.968;1.608;2023-01-31T10:21:06;11.27;;;4.72;;
70253;SDS011;57649;42.968;1.608;2023-01-31T10:26:19;10.18;;;4.72;;
70253;SDS011;57649;42.968;1.608;2023-01-31T10:31:39;10.15;;;5.68;;
70253;SDS011;57649;42.968;1.608;2023-01-31T10:37:04;8.77;;;4.82;;
70253;SDS011;57649;42.968;1.608;2023-01-31T10:45:20;7.22;;;3.75;;
70253;SDS011;57649;42.968;1.608;2023-01-31T10:50:22;7.78;;;3.75;;
70253;SDS011;57649;42.968;1.608;2023-01-31T10:55:50;11.80;;;4.38;;
70253;SDS011;57649;42.968;1.608;2023-01-31T10:58:22;6.55;;;3.40;;
70253;SDS011;57649;42.968;1.608;2023-01-31T11:00:48;3.33;;;2.30;;
70253;SDS011;57649;42.968;1.608;2023-01-31T11:03:14;4.88;;;2.33;;
70253;SDS011;57649;42.968;1.608;2023-01-31T11:05:43;4.68;;;2.70;;
70253;SDS011;57649;42.968;1.608;2023-01-31T11:08:21;7.28;;;3.10;;
70253;SDS011;57649;42.968;1.608;2023-01-31T11:10:50;7.03;;;2.75;;
70253;SDS011;57649;42.968;1.608;2023-01-31T11:13:17;6.78;;;2.90;;
70253;SDS011;57649;42.968;1.608;2023-01-31T11:15:43;5.03;;;2.50;;
70253;SDS011;57649;42.968;1.608;2023-01-31T11:21:18;5.85;;;3.28;;
70253;SDS011;57649;42.968;1.608;2023-01-31T11:23:46;4.72;;;3.05;;
70253;SDS011;57649;42.968;1.608;2023-01-31T11:26:23;6.55;;;3.50;;
70253;SDS011;57649;42.968;1.608;2023-01-31T11:28:54;7.72;;;2.78;;
70253;SDS011;57649;42.968;1.608;2023-01-31T11:31:21;19.35;;;11.48;;
70253;SDS011;57649;42.968;1.608;2023-01-31T11:33:58;8.00;;;3.50;;
70253;SDS011;57649;42.968;1.608;2023-01-31T11:36:30;6.07;;;2.95;;
70253;SDS011;57649;42.968;1.608;2023-01-31T11:39:25;5.25;;;3.25;;
70253;SDS011;57649;42.968;1.608;2023-01-31T11:41:56;5.25;;;2.75;;
70253;SDS011;57649;42.968;1.608;2023-01-31T11:44:26;5.68;;;3.40;;
70253;SDS011;57649;42.968;1.608;2023-01-31T11:51:46;4.88;;;3.10;;
70253;SDS011;57649;42.968;1.608;2023-01-31T11:54:20;6.47;;;3.10;;
70253;SDS011;57649;42.968;1.608;2023-01-31T11:56:49;5.13;;;3.33;;
70253;SDS011;57649;42.968;1.608;2023-01-31T11:59:16;4.43;;;2.80;;
70253;SDS011;57649;42.968;1.608;2023-01-31T12:01:48;4.28;;;2.83;;
70253;SDS011;57649;42.968;1.608;2023-01-31T12:04:23;4.90;;;2.60;;
70253;SDS011;57649;42.968;1.608;2023-01-31T12:06:55;3.05;;;2.03;;
70253;SDS011;57649;42.968;1.608;2023-01-31T12:09:23;3.70;;;2.50;;
70253;SDS011;57649;42.968;1.608;2023-01-31T12:11:55;7.80;;;2.28;;
70253;SDS011;57649;42.968;1.608;2023-01-31T12:14:39;2.30;;;1.42;;
70253;SDS011;57649;42.968;1.608;2023-01-31T12:17:09;2.85;;;1.58;;
70253;SDS011;57649;42.968;1.608;2023-01-31T12:22:24;5.63;;;2.50;;
70253;SDS011;57649;42.968;1.608;2023-01-31T12:33:07;4.30;;;1.90;;
70253;SDS011;57649;42.968;1.608;2023-01-31T12:35:47;4.93;;;2.45;;
70253;SDS011;57649;42.968;1.608;2023-01-31T12:49:10;5.25;;;1.92;;
70253;SDS011;57649;42.968;1.608;2023-01-31T12:57:41;10.27;;;4.80;;
70253;SDS011;57649;42.968;1.608;2023-01-31T13:05:50;1.92;;;1.00;;
70253;SDS011;57649;42.968;1.608;2023-01-31T13:08:25;2.15;;;1.40;;
70253;SDS011;57649;42.968;1.608;2023-01-31T13:13:34;2.33;;;1.10;;
70253;SDS011;57649;42.968;1.608;2023-01-31T13:18:45;3.33;;;1.20;;
70253;SDS011;57649;42.968;1.608;2023-01-31T13:21:14;3.58;;;1.33;;
70253;SDS011;57649;42.968;1.608;2023-01-31T13:23:44;2.55;;;1.50;;
70253;SDS011;57649;42.968;1.608;2023-01-31T13:26:22;2.03;;;1.40;;
70253;SDS011;57649;42.968;1.608;2023-01-31T13:29:11;3.35;;;1.60;;
70253;SDS011;57649;42.968;1.608;2023-01-31T13:31:41;3.45;;;1.75;;
70253;SDS011;57649;42.968;1.608;2023-01-31T13:34:12;3.63;;;1.45;;
70253;SDS011;57649;42.968;1.608;2023-01-31T13:36:47;2.45;;;1.48;;
70253;SDS011;57649;42.968;1.608;2023-01-31T13:39:50;2.67;;;1.42;;
70253;SDS011;57649;42.968;1.608;2023-01-31T13:42:12;2.75;;;1.17;;
70253;SDS011;57649;42.968;1.608;2023-01-31T13:44:39;2.13;;;1.40;;
70253;SDS011;57649;42.968;1.608;2023-01-31T13:47:07;2.08;;;1.23;;
70253;SDS011;57649;42.968;1.608;2023-01-31T13:49:46;2.55;;;1.27;;
70253;SDS011;57649;42.968;1.608;2023-01-31T13:52:38;3.35;;;1.45;;
70253;SDS011;57649;42.968;1.608;2023-01-31T13:55:18;9.07;;;1.25;;
70253;SDS011;57649;42.968;1.608;2023-01-31T13:58:36;9.43;;;7.07;;
70253;SDS011;57649;42.968;1.608;2023-01-31T14:03:25;2.25;;;1.30;;
70253;SDS011;57649;42.968;1.608;2023-01-31T14:05:55;4.40;;;1.73;;
70253;SDS011;57649;42.968;1.608;2023-01-31T14:18:56;2.60;;;1.50;;
70253;SDS011;57649;42.968;1.608;2023-01-31T14:23:57;3.92;;;2.00;;
70253;SDS011;57649;42.968;1.608;2023-01-31T14:28:59;3.85;;;1.20;;
70253;SDS011;57649;42.968;1.608;2023-01-31T14:31:31;2.17;;;1.38;;
70253;SDS011;57649;42.968;1.608;2023-01-31T14:33:57;2.17;;;1.40;;
70253;SDS011;57649;42.968;1.608;2023-01-31T14:36:39;2.65;;;1.33;;
70253;SDS011;57649;42.968;1.608;2023-01-31T14:58:05;4.78;;;1.40;;
70253;SDS011;57649;42.968;1.608;2023-01-31T15:00:46;1.05;;;0.90;;
70253;SDS011;57649;42.968;1.608;2023-01-31T15:05:52;4.90;;;1.30;;
70253;SDS011;57649;42.968;1.608;2023-01-31T15:16:31;4.97;;;2.10;;
70253;SDS011;57649;42.968;1.608;2023-01-31T15:21:49;6.85;;;1.83;;
70253;SDS011;57649;42.968;1.608;2023-01-31T15:24:36;6.15;;;1.80;;
70253;SDS011;57649;42.968;1.608;2023-01-31T15:27:37;6.97;;;2.10;;
70253;SDS011;57649;42.968;1.608;2023-01-31T15:33:06;5.25;;;2.40;;
70253;SDS011;57649;42.968;1.608;2023-01-31T15:37:54;10.02;;;4.47;;
70253;SDS011;57649;42.968;1.608;2023-01-31T15:40:38;7.65;;;2.33;;
70253;SDS011;57649;42.968;1.608;2023-01-31T15:43:23;4.97;;;3.17;;
70253;SDS011;57649;42.968;1.608;2023-01-31T15:45:49;6.50;;;3.25;;
70253;SDS011;57649;42.968;1.608;2023-01-31T15:48:17;4.03;;;2.97;;
70253;SDS011;57649;42.968;1.608;2023-01-31T15:50:49;4.28;;;2.63;;
70253;SDS011;57649;42.968;1.608;2023-01-31T15:53:23;6.13;;;3.40;;
70253;SDS011;57649;42.968;1.608;2023-01-31T15:55:53;9.77;;;2.83;;
70253;SDS011;57649;42.968;1.608;2023-01-31T15:58:24;8.98;;;2.60;;
70253;SDS011;57649;42.968;1.608;2023-01-31T16:00:55;5.30;;;2.47;;
70253;SDS011;57649;42.968;1.608;2023-01-31T16:03:27;4.15;;;2.15;;
70253;SDS011;57649;42.968;1.608;2023-01-31T16:05:58;7.28;;;3.17;;
70253;SDS011;57649;42.968;1.608;2023-01-31T16:08:36;7.30;;;2.75;;
70253;SDS011;57649;42.968;1.608;2023-01-31T16:11:04;3.93;;;2.30;;
70253;SDS011;57649;42.968;1.608;2023-01-31T16:13:32;3.55;;;1.95;;
70253;SDS011;57649;42.968;1.608;2023-01-31T16:16:04;3.97;;;2.30;;
70253;SDS011;57649;42.968;1.608;2023-01-31T16:18:31;8.98;;;2.80;;
70253;SDS011;57649;42.968;1.608;2023-01-31T16:21:10;4.57;;;1.60;;
70253;SDS011;57649;42.968;1.608;2023-01-31T16:23:58;8.85;;;2.55;;
70253;SDS011;57649;42.968;1.608;2023-01-31T16:26:24;7.40;;;2.90;;
70253;SDS011;57649;42.968;1.608;2023-01-31T16:28:57;4.60;;;2.75;;
70253;SDS011;57649;42.968;1.608;2023-01-31T16:31:30;5.50;;;3.28;;
70253;SDS011;57649;42.968;1.608;2023-01-31T16:34:01;4.93;;;2.75;;
70253;SDS011;57649;42.968;1.608;2023-01-31T16:36:33;6.00;;;4.28;;
70253;SDS011;57649;42.968;1.608;2023-01-31T16:39:20;9.02;;;4.63;;
70253;SDS011;57649;42.968;1.608;2023-01-31T16:44:46;10.95;;;4.65;;
70253;SDS011;57649;42.968;1.608;2023-01-31T16:52:51;8.25;;;4.70;;
70253;SDS011;57649;42.968;1.608;2023-01-31T16:55:32;10.90;;;7.53;;
70253;SDS011;57649;42.968;1.608;2023-01-31T16:57:58;11.13;;;7.30;;
70253;SDS011;57649;42.968;1.608;2023-01-31T17:02:58;4.72;;;2.92;;
70253;SDS011;57649;42.968;1.608;2023-01-31T17:10:22;8.05;;;4.25;;
70253;SDS011;57649;42.968;1.608;2023-01-31T17:12:53;7.20;;;4.10;;
70253;SDS011;57649;42.968;1.608;2023-01-31T17:15:33;8.82;;;3.72;;
70253;SDS011;57649;42.968;1.608;2023-01-31T17:17:59;11.65;;;4.63;;
70253;SDS011;57649;42.968;1.608;2023-01-31T17:20:24;8.05;;;3.83;;
70253;SDS011;57649;42.968;1.608;2023-01-31T17:22:49;8.55;;;4.97;;
70253;SDS011;57649;42.968;1.608;2023-01-31T17:25:16;11.77;;;5.18;;
70253;SDS011;57649;42.968;1.608;2023-01-31T17:27:46;9.65;;;5.00;;
70253;SDS011;57649;42.968;1.608;2023-01-31T17:30:13;15.00;;;6.30;;
70253;SDS011;57649;42.968;1.608;2023-01-31T17:32:40;13.50;;;5.50;;
70253;SDS011;57649;42.968;1.608;2023-01-31T17:35:25;8.73;;;4.95;;
70253;SDS011;57649;42.968;1.608;2023-01-31T17:38:02;15.98;;;5.57;;
70253;SDS011;57649;42.968;1.608;2023-01-31T17:40:28;9.73;;;4.97;;
70253;SDS011;57649;42.968;1.608;2023-01-31T17:43:01;15.82;;;6.43;;
70253;SDS011;57649;42.968;1.608;2023-01-31T17:45:27;19.10;;;8.77;;
70253;SDS011;57649;42.968;1.608;2023-01-31T17:47:53;14.50;;;8.52;;
70253;SDS011;57649;42.968;1.608;2023-01-31T17:50:20;30.17;;;16.10;;
70253;SDS011;57649;42.968;1.608;2023-01-31T17:52:47;20.15;;;11.57;;
70253;SDS011;57649;42.968;1.608;2023-01-31T17:55:14;16.30;;;11.07;;
70253;SDS011;57649;42.968;1.608;2023-01-31T17:57:40;14.07;;;8.60;;
70253;SDS011;57649;42.968;1.608;2023-01-31T18:00:07;13.32;;;8.18;;
70253;SDS011;57649;42.968;1.608;2023-01-31T18:02:38;12.30;;;8.45;;